Time;durP1;ratioP1;P1;durP2;ratioP2;P2;SDS_P1;SDS_P2;PMS_P1;PMS_P2;Temp;Humidity;BMP_temperature;BMP_pressure;BME280_temperature;BME280_humidity;BME280_pressure;Samples;Min_cycle;Max_cycle;Signal;HPM_P1;HPM_P2
2024/01/03 00:01:29;;;;;;;2.70;2.50;;;8.30;99.90;;;;;;4921062;29;20505;-59
2024/01/03 00:03:55;;;;;;;3.10;2.70;;;8.30;99.90;;;;;;4917321;29;20849;-55
2024/01/03 00:06:21;;;;;;;3.30;3.00;;;8.30;99.90;;;;;;4916086;29;20610;-60
2024/01/03 00:08:46;;;;;;;4.10;3.10;;;8.30;99.90;;;;;;4916660;29;20235;-61
2024/01/03 00:11:19;;;;;;;4.77;2.90;;;8.30;99.90;;;;;;4909219;29;20433;-61
2024/01/03 00:14:05;;;;;;;3.70;2.87;;;8.30;99.90;;;;;;4921223;29;20543;-63
2024/01/03 00:16:33;;;;;;;3.03;2.80;;;8.40;99.90;;;;;;4903975;29;20431;-64
2024/01/03 00:19:00;;;;;;;2.83;2.63;;;8.40;99.90;;;;;;4908772;29;20464;-63
2024/01/03 00:21:27;;;;;;;3.60;2.70;;;8.40;99.90;;;;;;4920948;29;20420;-60
2024/01/03 00:23:55;;;;;;;4.70;2.70;;;8.40;99.90;;;;;;4912821;29;20439;-60
2024/01/03 00:26:22;;;;;;;2.90;2.70;;;8.40;99.90;;;;;;4916752;29;20519;-60
2024/01/03 00:28:48;;;;;;;4.30;3.80;;;8.40;99.90;;;;;;4916149;29;20879;-59
2024/01/03 00:31:25;;;;;;;3.97;2.57;;;8.40;99.90;;;;;;4914987;29;20499;-63
2024/01/03 00:33:51;;;;;;;2.90;2.30;;;8.40;99.90;;;;;;4919816;29;20277;-63
2024/01/03 00:36:17;;;;;;;3.87;2.87;;;8.40;99.90;;;;;;4915189;29;20934;-63
2024/01/03 00:38:44;;;;;;;3.13;2.70;;;8.40;99.90;;;;;;4915375;29;20510;-62
2024/01/03 00:41:09;;;;;;;3.17;2.63;;;8.40;99.90;;;;;;4911028;29;20177;-63
2024/01/03 00:43:39;;;;;;;3.23;2.93;;;8.40;99.90;;;;;;4919996;29;20455;-61
2024/01/03 00:46:05;;;;;;;3.83;2.80;;;8.40;99.90;;;;;;4915631;29;20592;-64
2024/01/03 00:48:32;;;;;;;2.47;2.27;;;8.50;99.90;;;;;;4912717;29;20444;-63
2024/01/03 00:50:58;;;;;;;3.30;2.20;;;8.50;99.90;;;;;;4913334;29;20427;-63
2024/01/03 00:53:24;;;;;;;3.10;2.80;;;8.50;99.90;;;;;;4915042;29;20419;-61
2024/01/03 00:55:50;;;;;;;2.13;1.93;;;8.50;99.90;;;;;;4915672;29;20423;-62
2024/01/03 00:58:16;;;;;;;2.30;2.10;;;8.50;99.90;;;;;;4914904;29;20470;-61
2024/01/03 01:00:43;;;;;;;2.03;1.90;;;8.50;99.90;;;;;;4915924;29;20415;-62
2024/01/03 01:03:08;;;;;;;2.73;2.03;;;8.50;99.90;;;;;;4915628;29;20416;-63
2024/01/03 01:05:34;;;;;;;2.03;1.80;;;8.50;99.90;;;;;;4915951;29;20842;-63
2024/01/03 01:08:00;;;;;;;1.67;1.57;;;8.50;99.90;;;;;;4912107;29;20470;-63
2024/01/03 01:10:26;;;;;;;2.63;1.70;;;8.50;99.90;;;;;;4914587;29;20444;-63
2024/01/03 01:12:51;;;;;;;1.60;1.50;;;8.50;99.90;;;;;;4913593;29;20235;-63
2024/01/03 01:15:17;;;;;;;1.63;1.43;;;8.60;99.90;;;;;;4915659;29;20182;-63
2024/01/03 01:17:42;;;;;;;1.70;1.33;;;8.60;99.90;;;;;;4912476;29;20211;-64
2024/01/03 01:20:08;;;;;;;2.23;1.40;;;8.60;99.90;;;;;;4916008;29;20706;-63
2024/01/03 01:22:34;;;;;;;1.40;1.30;;;8.60;99.90;;;;;;4909607;29;20183;-61
2024/01/03 01:24:59;;;;;;;3.30;1.53;;;8.60;99.90;;;;;;4908185;29;20438;-63
2024/01/03 01:27:25;;;;;;;1.70;1.60;;;8.60;99.90;;;;;;4914228;29;20286;-64
2024/01/03 01:29:51;;;;;;;2.37;1.67;;;8.60;99.90;;;;;;4911583;29;20182;-62
2024/01/03 01:32:16;;;;;;;2.03;1.63;;;8.50;99.90;;;;;;4910435;29;20184;-61
2024/01/03 01:34:42;;;;;;;1.27;1.07;;;8.50;99.90;;;;;;4914553;29;20686;-62
2024/01/03 01:37:08;;;;;;;1.73;1.63;;;8.50;99.90;;;;;;4915128;29;20222;-64
2024/01/03 01:39:33;;;;;;;2.50;1.00;;;8.50;99.90;;;;;;4914737;29;20262;-64
2024/01/03 01:41:59;;;;;;;4.40;1.43;;;8.50;99.90;;;;;;4914733;29;20523;-63
2024/01/03 01:44:25;;;;;;;1.70;1.60;;;8.60;99.90;;;;;;4915431;29;20178;-63
2024/01/03 01:46:51;;;;;;;1.40;1.10;;;8.50;99.90;;;;;;4907038;29;20204;-63
2024/01/03 01:49:19;;;;;;;1.63;1.30;;;8.60;99.90;;;;;;4909554;29;20193;-62
2024/01/03 01:51:46;;;;;;;1.20;1.10;;;8.60;99.90;;;;;;4915140;29;20478;-62
2024/01/03 01:54:17;;;;;;;2.33;1.00;;;8.60;99.90;;;;;;4911658;29;20454;-61
2024/01/03 01:56:43;;;;;;;1.90;0.90;;;8.50;99.90;;;;;;4907823;29;20439;-62
2024/01/03 01:59:10;;;;;;;0.90;0.90;;;8.50;99.90;;;;;;4917728;29;20581;-62
2024/01/03 02:01:36;;;;;;;2.40;1.47;;;8.50;99.90;;;;;;4917173;29;20756;-62
2024/01/03 02:04:07;;;;;;;1.83;1.00;;;8.50;99.90;;;;;;4913790;29;20593;-63
2024/01/03 02:06:33;;;;;;;0.87;0.87;;;8.50;99.90;;;;;;4914762;29;20521;-61
2024/01/03 02:08:59;;;;;;;1.20;1.10;;;8.50;99.90;;;;;;4911931;29;20443;-63
2024/01/03 02:11:25;;;;;;;3.33;1.20;;;8.50;99.90;;;;;;4914146;29;20426;-62
2024/01/03 02:13:50;;;;;;;1.60;1.10;;;8.40;99.90;;;;;;4913815;29;20215;-63
2024/01/03 02:16:16;;;;;;;1.10;0.90;;;8.40;99.90;;;;;;4909705;29;20190;-63
2024/01/03 02:18:43;;;;;;;2.50;1.00;;;8.40;99.90;;;;;;4909694;29;20210;-63
2024/01/03 02:21:15;;;;;;;1.27;1.07;;;8.40;99.90;;;;;;4915263;29;20262;-62
2024/01/03 02:23:42;;;;;;;4.30;0.90;;;8.40;99.90;;;;;;4902584;29;20862;-63
2024/01/03 02:26:08;;;;;;;0.70;0.70;;;8.40;99.90;;;;;;4907782;29;20447;-63
2024/01/03 02:28:34;;;;;;;1.03;0.87;;;8.50;99.90;;;;;;4907005;29;20483;-63
2024/01/03 02:30:59;;;;;;;1.30;1.03;;;8.50;99.90;;;;;;4915313;29;20431;-62
2024/01/03 02:33:25;;;;;;;1.87;1.50;;;8.50;99.90;;;;;;4914592;29;20927;-64
2024/01/03 02:35:50;;;;;;;1.53;1.20;;;8.50;99.90;;;;;;4907604;29;20231;-64
2024/01/03 02:38:16;;;;;;;0.97;0.90;;;8.60;99.90;;;;;;4914633;29;20217;-63
2024/01/03 02:40:44;;;;;;;0.90;0.90;;;8.60;99.90;;;;;;4917434;29;20170;-62
2024/01/03 02:43:10;;;;;;;1.07;0.97;;;8.60;99.90;;;;;;4913126;29;20262;-62
2024/01/03 02:45:35;;;;;;;2.50;2.30;;;8.50;99.90;;;;;;4914240;29;20423;-62
2024/01/03 02:48:01;;;;;;;2.00;1.00;;;8.50;99.90;;;;;;4912119;29;20820;-62
2024/01/03 02:50:31;;;;;;;0.93;0.90;;;8.60;99.90;;;;;;4912204;29;20189;-63
2024/01/03 02:52:57;;;;;;;1.70;0.90;;;8.70;99.90;;;;;;4899189;29;20584;-63
2024/01/03 02:55:22;;;;;;;1.27;0.70;;;8.80;99.90;;;;;;4914375;29;20513;-62
2024/01/03 02:57:48;;;;;;;1.00;0.90;;;8.80;99.90;;;;;;4915297;29;20287;-61
2024/01/03 03:00:14;;;;;;;0.80;0.80;;;8.80;99.90;;;;;;4911160;29;20183;-63
2024/01/03 03:02:40;;;;;;;0.90;0.90;;;8.80;99.90;;;;;;4907831;29;20176;-62
2024/01/03 03:05:06;;;;;;;2.47;1.20;;;8.80;99.90;;;;;;4914042;29;20236;-62
2024/01/03 03:07:32;;;;;;;0.67;0.67;;;8.80;99.90;;;;;;4919481;29;20223;-64
2024/01/03 03:09:58;;;;;;;0.87;0.70;;;8.80;99.90;;;;;;4916140;29;20423;-64
2024/01/03 03:12:23;;;;;;;0.80;0.80;;;8.80;99.90;;;;;;4911150;29;20433;-64
2024/01/03 03:14:49;;;;;;;0.90;0.80;;;8.90;99.90;;;;;;4906702;29;20559;-64
2024/01/03 03:17:15;;;;;;;0.73;0.60;;;8.90;99.90;;;;;;4907937;29;20208;-63
2024/01/03 03:19:40;;;;;;;0.70;0.70;;;8.90;99.90;;;;;;4911900;29;20445;-63
2024/01/03 03:22:06;;;;;;;0.60;0.60;;;8.90;99.90;;;;;;4905508;29;20302;-62
2024/01/03 03:24:32;;;;;;;0.63;0.63;;;8.90;99.90;;;;;;4913394;29;20179;-60
2024/01/03 03:26:57;;;;;;;0.70;0.70;;;8.90;99.90;;;;;;4917914;29;20195;-62
2024/01/03 03:29:23;;;;;;;1.90;0.80;;;8.90;99.90;;;;;;4909823;29;20195;-59
2024/01/03 03:31:48;;;;;;;0.93;0.93;;;8.90;99.90;;;;;;4917537;29;20202;-63
2024/01/03 03:34:17;;;;;;;0.70;0.70;;;8.90;99.90;;;;;;4916465;29;20555;-63
2024/01/03 03:36:44;;;;;;;1.50;1.00;;;8.90;99.90;;;;;;4913856;29;20202;-64
2024/01/03 03:39:09;;;;;;;2.60;0.90;;;8.90;99.90;;;;;;4916439;29;20661;-63
2024/01/03 03:41:36;;;;;;;1.00;0.93;;;8.90;99.90;;;;;;4917985;29;20985;-63
2024/01/03 03:44:01;;;;;;;1.10;1.00;;;8.90;99.90;;;;;;4917950;29;20667;-61
2024/01/03 03:46:27;;;;;;;0.60;0.60;;;8.90;99.90;;;;;;4922332;29;20428;-63
2024/01/03 03:48:53;;;;;;;1.63;1.10;;;8.90;99.90;;;;;;4921938;29;20223;-64
2024/01/03 03:51:18;;;;;;;0.97;0.90;;;8.90;99.90;;;;;;4911908;29;20191;-64
2024/01/03 03:53:44;;;;;;;0.70;0.70;;;8.90;99.90;;;;;;4906974;29;20540;-65
2024/01/03 03:56:09;;;;;;;2.17;0.80;;;8.90;99.90;;;;;;4917871;29;20180;-63
2024/01/03 03:58:35;;;;;;;1.10;0.87;;;8.80;99.90;;;;;;4907074;29;20711;-62
2024/01/03 04:01:02;;;;;;;3.53;0.87;;;8.80;99.90;;;;;;4922145;29;20178;-64
2024/01/03 04:03:28;;;;;;;1.87;1.00;;;8.80;99.90;;;;;;4922364;29;20266;-62
2024/01/03 04:05:53;;;;;;;0.80;0.80;;;8.70;99.90;;;;;;4913260;29;20519;-62
2024/01/03 04:08:19;;;;;;;0.87;0.70;;;8.70;99.90;;;;;;4916059;29;20207;-62
2024/01/03 04:10:44;;;;;;;1.00;0.87;;;8.60;99.90;;;;;;4912308;29;20259;-64
2024/01/03 04:13:10;;;;;;;1.33;0.80;;;8.60;99.90;;;;;;4911536;29;20193;-63
2024/01/03 04:15:35;;;;;;;0.97;0.70;;;8.50;99.90;;;;;;4916682;29;20251;-62
2024/01/03 04:18:04;;;;;;;0.90;0.63;;;8.50;99.90;;;;;;4918929;29;20214;-64
2024/01/03 04:20:29;;;;;;;1.40;0.83;;;8.50;99.90;;;;;;4908995;29;20178;-63
2024/01/03 04:22:55;;;;;;;1.23;0.80;;;8.50;99.90;;;;;;4908936;29;20490;-61
2024/01/03 04:25:20;;;;;;;1.33;0.70;;;8.50;99.90;;;;;;4915232;29;20262;-63
2024/01/03 04:27:46;;;;;;;1.07;0.70;;;8.40;99.90;;;;;;4915641;29;20203;-63
2024/01/03 04:30:11;;;;;;;0.60;0.60;;;8.40;99.90;;;;;;4914861;29;20566;-64
2024/01/03 04:32:38;;;;;;;1.07;0.97;;;8.50;99.90;;;;;;4913271;29;20196;-63
2024/01/03 04:35:04;;;;;;;0.97;0.87;;;8.40;99.90;;;;;;4916875;29;20215;-63
2024/01/03 04:37:32;;;;;;;1.77;0.87;;;8.50;99.90;;;;;;4922519;29;20459;-61
2024/01/03 04:39:57;;;;;;;1.93;1.10;;;8.50;99.90;;;;;;4915774;29;20418;-65
2024/01/03 04:42:23;;;;;;;0.70;0.70;;;8.60;99.90;;;;;;4911329;29;20922;-64
2024/01/03 04:44:49;;;;;;;0.67;0.67;;;8.60;99.90;;;;;;4910203;29;20195;-64
2024/01/03 04:47:14;;;;;;;3.90;0.70;;;8.60;99.90;;;;;;4916054;29;20204;-63
2024/01/03 04:49:40;;;;;;;1.43;0.70;;;8.60;99.90;;;;;;4915812;29;20527;-64
2024/01/03 04:52:05;;;;;;;0.70;0.70;;;8.50;99.90;;;;;;4916073;29;20211;-64
2024/01/03 04:54:31;;;;;;;0.83;0.70;;;8.60;99.90;;;;;;4907884;29;20175;-64
2024/01/03 04:56:56;;;;;;;1.33;1.10;;;8.60;99.90;;;;;;4919067;29;20585;-65
2024/01/03 04:59:22;;;;;;;1.00;0.70;;;8.60;99.90;;;;;;4903238;29;20289;-65
2024/01/03 05:01:48;;;;;;;2.47;0.97;;;8.60;99.90;;;;;;4912397;29;20198;-64
2024/01/03 05:04:13;;;;;;;1.10;0.80;;;8.50;99.90;;;;;;4920376;29;20528;-64
2024/01/03 05:06:41;;;;;;;1.30;0.90;;;8.60;99.90;;;;;;4914135;29;20229;-63
2024/01/03 05:09:06;;;;;;;1.57;1.00;;;8.60;99.90;;;;;;4911970;29;20434;-64
2024/01/03 05:11:32;;;;;;;1.10;1.00;;;8.70;99.90;;;;;;4916159;29;20803;-64
2024/01/03 05:13:58;;;;;;;1.27;1.00;;;8.70;99.90;;;;;;4914996;29;20273;-62
2024/01/03 05:16:23;;;;;;;0.90;0.80;;;8.60;99.90;;;;;;4909184;29;20530;-65
2024/01/03 05:18:49;;;;;;;3.67;0.80;;;8.60;99.90;;;;;;4911168;29;20202;-61
2024/01/03 05:21:15;;;;;;;2.77;1.07;;;8.60;99.90;;;;;;4914437;29;20243;-63
2024/01/03 05:23:40;;;;;;;1.00;0.80;;;8.60;99.90;;;;;;4914153;29;20676;-64
2024/01/03 05:26:06;;;;;;;0.90;0.90;;;8.70;99.90;;;;;;4914349;29;20189;-64
2024/01/03 05:28:32;;;;;;;2.53;1.00;;;8.70;99.90;;;;;;4915705;29;20457;-64
2024/01/03 05:30:58;;;;;;;1.10;0.80;;;8.80;99.90;;;;;;4919317;29;20191;-63
2024/01/03 05:33:24;;;;;;;1.23;1.13;;;8.70;99.90;;;;;;4915879;29;20210;-63
2024/01/03 05:35:49;;;;;;;2.23;1.10;;;8.70;99.90;;;;;;4915852;29;20454;-63
2024/01/03 05:38:15;;;;;;;2.20;0.90;;;8.70;99.90;;;;;;4908125;29;20200;-64
2024/01/03 05:40:41;;;;;;;2.30;1.47;;;8.80;99.90;;;;;;4914468;29;20638;-64
2024/01/03 05:43:08;;;;;;;2.43;1.10;;;8.80;99.90;;;;;;4907722;29;20417;-64
2024/01/03 05:45:34;;;;;;;2.20;1.00;;;8.90;99.90;;;;;;4916697;29;20183;-64
2024/01/03 05:47:59;;;;;;;1.77;0.97;;;8.90;99.90;;;;;;4915996;29;20513;-64
2024/01/03 05:50:28;;;;;;;1.40;1.00;;;8.90;99.90;;;;;;4911766;29;20180;-63
2024/01/03 05:52:54;;;;;;;1.20;0.90;;;8.90;99.90;;;;;;4922426;29;20185;-63
2024/01/03 05:55:19;;;;;;;1.23;1.10;;;8.90;99.90;;;;;;4906698;29;20444;-64
2024/01/03 05:57:45;;;;;;;2.13;0.90;;;8.80;99.90;;;;;;4920413;29;20673;-63
2024/01/03 06:00:11;;;;;;;2.30;0.90;;;8.80;99.90;;;;;;4915061;29;20206;-65
2024/01/03 06:02:36;;;;;;;1.63;0.90;;;8.80;99.90;;;;;;4907310;29;20183;-66
2024/01/03 06:05:02;;;;;;;1.30;0.90;;;8.90;99.90;;;;;;4906027;29;20483;-64
2024/01/03 06:07:28;;;;;;;0.97;0.87;;;8.80;99.90;;;;;;4910756;29;20226;-64
2024/01/03 06:09:53;;;;;;;1.53;0.90;;;8.90;99.90;;;;;;4906304;29;20182;-64
2024/01/03 06:12:19;;;;;;;2.80;1.23;;;8.80;99.90;;;;;;4908848;29;20214;-64
2024/01/03 06:14:44;;;;;;;2.77;1.30;;;8.90;99.90;;;;;;4916802;29;20183;-65
2024/01/03 06:17:10;;;;;;;1.00;0.90;;;9.00;99.90;;;;;;4906758;29;21520;-64
2024/01/03 06:19:36;;;;;;;1.37;0.70;;;8.90;99.90;;;;;;4921876;29;20171;-64
2024/01/03 06:22:01;;;;;;;1.40;1.10;;;8.90;99.90;;;;;;4908731;29;20183;-64
2024/01/03 06:24:27;;;;;;;1.13;0.77;;;9.00;99.90;;;;;;4910805;29;20213;-63
2024/01/03 06:26:52;;;;;;;1.17;0.97;;;9.00;99.90;;;;;;4918110;29;20697;-63
2024/01/03 06:29:18;;;;;;;1.63;1.23;;;8.90;99.90;;;;;;4914378;29;20182;-64
2024/01/03 06:31:44;;;;;;;2.30;0.90;;;9.00;99.90;;;;;;4914383;29;20610;-65
2024/01/03 06:34:09;;;;;;;2.33;1.00;;;9.10;99.90;;;;;;4919398;29;20190;-65
2024/01/03 06:36:35;;;;;;;2.93;1.10;;;9.10;99.90;;;;;;4921525;29;20257;-64
2024/01/03 06:39:00;;;;;;;1.30;1.10;;;9.10;99.90;;;;;;4917530;29;20577;-64
2024/01/03 06:41:26;;;;;;;3.53;1.27;;;9.10;99.90;;;;;;4914720;29;20176;-63
2024/01/03 06:43:52;;;;;;;2.97;1.17;;;9.10;99.90;;;;;;4905736;29;20726;-63
2024/01/03 06:46:17;;;;;;;2.90;0.97;;;9.10;99.90;;;;;;4910348;29;20184;-63
2024/01/03 06:48:43;;;;;;;11.20;1.30;;;9.20;99.90;;;;;;4902711;29;20683;-61
2024/01/03 06:51:08;;;;;;;2.30;0.93;;;9.10;99.90;;;;;;4910359;29;20194;-63
2024/01/03 06:53:34;;;;;;;3.63;1.67;;;9.20;99.90;;;;;;4915498;29;20172;-64
2024/01/03 06:55:59;;;;;;;2.80;1.50;;;9.20;99.90;;;;;;4913461;29;20584;-66
2024/01/03 06:58:25;;;;;;;3.80;2.07;;;9.20;99.90;;;;;;4906928;29;20279;-64
2024/01/03 07:00:51;;;;;;;2.50;1.80;;;9.10;99.90;;;;;;4914331;29;20194;-63
2024/01/03 07:03:17;;;;;;;3.57;1.50;;;9.10;99.90;;;;;;4906600;29;20180;-64
2024/01/03 07:05:43;;;;;;;2.60;1.30;;;9.10;99.90;;;;;;4909375;29;20183;-64
2024/01/03 07:08:09;;;;;;;4.77;1.37;;;9.10;99.90;;;;;;4913334;29;20310;-64
2024/01/03 07:10:35;;;;;;;2.17;1.00;;;9.00;99.90;;;;;;4917616;29;20175;-63
2024/01/03 07:13:01;;;;;;;1.67;1.57;;;9.10;99.90;;;;;;4915173;29;20463;-65
2024/01/03 07:15:27;;;;;;;3.20;2.00;;;9.00;99.90;;;;;;4920887;29;20172;-64
2024/01/03 07:17:55;;;;;;;4.00;1.70;;;9.00;99.90;;;;;;4919912;29;20633;-63
2024/01/03 07:20:22;;;;;;;2.87;1.70;;;8.90;99.90;;;;;;4922831;29;20475;-63
2024/01/03 07:22:48;;;;;;;1.87;1.37;;;9.00;99.90;;;;;;4913806;29;20435;-63
2024/01/03 07:25:14;;;;;;;2.40;1.50;;;9.00;99.90;;;;;;4909940;29;20466;-63
2024/01/03 07:27:40;;;;;;;1.57;1.47;;;9.00;99.90;;;;;;4917223;29;20872;-64
2024/01/03 07:30:06;;;;;;;6.13;1.20;;;9.00;99.90;;;;;;4917749;29;20187;-64
2024/01/03 07:32:32;;;;;;;1.00;0.87;;;9.00;99.90;;;;;;4920936;29;20206;-64
2024/01/03 07:34:57;;;;;;;1.43;1.03;;;9.00;99.90;;;;;;4909888;29;20428;-64
2024/01/03 07:37:23;;;;;;;5.30;1.20;;;9.00;99.90;;;;;;4910257;29;20463;-65
2024/01/03 07:39:49;;;;;;;2.70;1.37;;;9.10;99.90;;;;;;4916365;29;20171;-64
2024/01/03 07:42:14;;;;;;;1.50;1.20;;;9.10;99.90;;;;;;4923933;29;20620;-65
2024/01/03 07:44:42;;;;;;;13.33;1.77;;;9.10;99.90;;;;;;4917778;29;20182;-65
2024/01/03 07:47:11;;;;;;;1.10;1.00;;;9.10;99.90;;;;;;4910616;29;20210;-64
2024/01/03 07:49:38;;;;;;;1.33;1.00;;;9.10;99.90;;;;;;4909787;29;20441;-63
2024/01/03 07:52:04;;;;;;;1.63;1.17;;;9.10;99.90;;;;;;4920831;29;20423;-65
2024/01/03 07:54:30;;;;;;;3.03;1.17;;;9.10;99.90;;;;;;4920261;29;20795;-66
2024/01/03 07:56:57;;;;;;;2.37;1.00;;;9.10;99.90;;;;;;4916098;29;20491;-65
2024/01/03 07:59:25;;;;;;;2.47;1.43;;;9.20;99.90;;;;;;4911013;29;20467;-64
2024/01/03 08:01:51;;;;;;;2.60;1.03;;;9.30;99.90;;;;;;4917419;29;20411;-65
2024/01/03 08:04:17;;;;;;;3.57;1.37;;;9.30;99.90;;;;;;4917198;29;20435;-64
2024/01/03 08:06:43;;;;;;;3.73;2.03;;;9.30;99.90;;;;;;4917441;29;20480;-64
2024/01/03 08:09:08;;;;;;;4.87;2.10;;;9.30;99.90;;;;;;4917251;29;20254;-64
2024/01/03 08:11:34;;;;;;;2.80;1.17;;;9.30;99.90;;;;;;4917129;29;20465;-64
2024/01/03 08:13:59;;;;;;;1.63;1.00;;;9.40;99.90;;;;;;4915898;29;20223;-65
2024/01/03 08:16:25;;;;;;;1.53;1.00;;;9.30;99.90;;;;;;4916446;29;20180;-64
2024/01/03 08:18:51;;;;;;;1.37;0.90;;;9.30;99.90;;;;;;4913778;29;20206;-64
2024/01/03 08:21:16;;;;;;;2.23;0.90;;;9.30;99.90;;;;;;4923019;29;20243;-66
2024/01/03 08:23:42;;;;;;;3.23;1.67;;;9.30;99.90;;;;;;4909071;29;20171;-66
2024/01/03 08:26:09;;;;;;;1.80;0.83;;;9.40;99.90;;;;;;4907349;29;20530;-65
2024/01/03 08:28:41;;;;;;;1.53;1.10;;;9.30;99.90;;;;;;4912922;29;20443;-65
2024/01/03 08:31:17;;;;;;;2.13;1.03;;;9.30;99.90;;;;;;4914336;29;20647;-63
2024/01/03 08:33:44;;;;;;;2.80;1.03;;;9.30;99.90;;;;;;4920105;29;20469;-64
2024/01/03 08:36:14;;;;;;;2.60;1.57;;;9.30;99.90;;;;;;4911354;29;20440;-64
2024/01/03 08:38:41;;;;;;;2.80;1.27;;;9.40;99.90;;;;;;4915624;29;20537;-65
2024/01/03 08:41:19;;;;;;;1.83;1.10;;;9.40;99.90;;;;;;4915258;29;20451;-66
2024/01/03 08:43:46;;;;;;;2.20;1.67;;;9.50;99.90;;;;;;4916526;29;20447;-65
2024/01/03 08:46:12;;;;;;;1.47;1.03;;;9.50;99.90;;;;;;4916564;29;20806;-66
2024/01/03 08:48:40;;;;;;;1.60;1.10;;;9.50;99.90;;;;;;4915968;29;20439;-66
2024/01/03 08:51:13;;;;;;;1.67;0.83;;;9.60;99.90;;;;;;4916592;29;20771;-67
2024/01/03 08:53:39;;;;;;;0.87;0.80;;;9.60;99.90;;;;;;4910537;29;20579;-65
2024/01/03 08:56:16;;;;;;;3.10;1.40;;;9.60;99.90;;;;;;4915947;29;20443;-65
2024/01/03 08:58:42;;;;;;;2.10;1.27;;;9.60;99.90;;;;;;4909311;29;20982;-66
2024/01/03 09:01:08;;;;;;;1.77;1.40;;;9.60;99.90;;;;;;4912919;29;20432;-63
2024/01/03 09:03:38;;;;;;;5.13;1.33;;;9.60;99.90;;;;;;4915226;29;20467;-66
2024/01/03 09:06:05;;;;;;;3.90;1.30;;;9.70;99.90;;;;;;4916361;29;20451;-65
2024/01/03 09:08:30;;;;;;;2.43;1.20;;;9.70;99.90;;;;;;4912573;29;20549;-69
2024/01/03 09:10:56;;;;;;;3.63;0.93;;;9.70;99.90;;;;;;4912766;29;20934;-66
2024/01/03 09:13:21;;;;;;;1.80;1.03;;;9.70;99.90;;;;;;4914288;29;20175;-65
2024/01/03 09:15:47;;;;;;;1.60;1.30;;;9.70;99.90;;;;;;4908951;29;20215;-66
2024/01/03 09:18:13;;;;;;;2.00;1.00;;;9.80;99.90;;;;;;4912457;29;20218;-65
2024/01/03 09:20:38;;;;;;;8.60;1.33;;;9.80;99.90;;;;;;4911007;29;20176;-65
2024/01/03 09:23:04;;;;;;;2.00;1.20;;;9.90;99.90;;;;;;4915681;29;20478;-64
2024/01/03 09:25:30;;;;;;;1.07;0.97;;;9.90;99.90;;;;;;4909368;29;20185;-64
2024/01/03 09:27:56;;;;;;;1.30;1.00;;;9.90;99.90;;;;;;4915599;29;20454;-65
2024/01/03 09:30:21;;;;;;;1.30;1.20;;;10.00;99.90;;;;;;4915785;29;20252;-64
2024/01/03 09:32:49;;;;;;;1.33;0.90;;;10.00;99.90;;;;;;4909547;29;20708;-64
2024/01/03 09:35:15;;;;;;;1.33;1.20;;;10.10;99.90;;;;;;4911753;29;20243;-65
2024/01/03 09:37:41;;;;;;;2.37;1.10;;;10.10;99.90;;;;;;4911405;29;20998;-66
2024/01/03 09:40:09;;;;;;;1.67;0.90;;;10.20;99.90;;;;;;4915284;29;20848;-66
2024/01/03 09:42:35;;;;;;;2.70;1.07;;;10.20;99.90;;;;;;4910912;29;20224;-65
2024/01/03 09:45:05;;;;;;;2.10;1.10;;;10.30;99.90;;;;;;4907964;29;20515;-66
2024/01/03 09:47:31;;;;;;;3.70;1.20;;;10.30;99.90;;;;;;4911052;29;20440;-64
2024/01/03 09:49:56;;;;;;;2.20;1.07;;;10.40;99.90;;;;;;4910801;29;20510;-65
2024/01/03 09:52:23;;;;;;;1.70;1.37;;;10.50;99.90;;;;;;4915988;29;20183;-65
2024/01/03 09:54:49;;;;;;;1.13;0.83;;;10.70;99.90;;;;;;4910270;29;20192;-65
2024/01/03 09:57:18;;;;;;;3.30;1.00;;;10.70;99.90;;;;;;4914744;29;21147;-63
2024/01/03 09:59:44;;;;;;;2.40;1.00;;;10.70;99.90;;;;;;4909520;29;20427;-64
2024/01/03 10:02:11;;;;;;;1.33;1.23;;;10.80;99.90;;;;;;4908863;29;21015;-65
2024/01/03 10:04:37;;;;;;;5.63;0.80;;;10.80;99.90;;;;;;4907960;29;20448;-65
2024/01/03 10:07:03;;;;;;;2.13;1.60;;;10.80;99.90;;;;;;4914821;29;20981;-66
2024/01/03 10:09:44;;;;;;;2.60;0.90;;;10.80;99.90;;;;;;4907240;29;20471;-66
2024/01/03 10:12:17;;;;;;;2.90;1.50;;;10.80;99.90;;;;;;4912434;29;20187;-66
2024/01/03 10:14:43;;;;;;;1.07;0.90;;;10.80;99.90;;;;;;4909383;29;20444;-66
2024/01/03 10:17:09;;;;;;;3.67;1.00;;;10.70;99.90;;;;;;4915258;29;20787;-65
2024/01/03 10:19:36;;;;;;;5.97;1.20;;;10.70;99.90;;;;;;4914644;29;20207;-64
2024/01/03 10:22:02;;;;;;;3.10;1.20;;;10.80;99.90;;;;;;4915465;29;20412;-66
2024/01/03 10:24:29;;;;;;;4.93;1.20;;;10.80;99.90;;;;;;4914925;29;20419;-65
2024/01/03 10:27:15;;;;;;;2.50;1.10;;;10.90;99.90;;;;;;4913909;29;20993;-65
2024/01/03 10:29:40;;;;;;;1.43;1.00;;;11.00;99.90;;;;;;4911424;29;20488;-66
2024/01/03 10:32:09;;;;;;;2.73;1.13;;;11.10;99.90;;;;;;4913505;29;20845;-65
2024/01/03 10:34:36;;;;;;;4.40;0.93;;;11.20;99.90;;;;;;4914609;29;20262;-66
2024/01/03 10:37:03;;;;;;;0.87;0.77;;;11.20;99.90;;;;;;4913947;29;20499;-67
2024/01/03 10:39:31;;;;;;;2.40;0.97;;;11.30;99.90;;;;;;4914509;29;20562;-64
2024/01/03 10:41:58;;;;;;;2.77;1.27;;;11.30;99.90;;;;;;4907036;29;20831;-66
2024/01/03 10:44:24;;;;;;;3.87;1.43;;;11.30;99.90;;;;;;4914479;29;20417;-65
2024/01/03 10:46:55;;;;;;;4.00;1.93;;;11.30;99.90;;;;;;4935747;23;20556;-59
2024/01/03 10:49:21;;;;;;;4.73;1.70;;;11.30;99.90;;;;;;4929476;29;20191;-60
2024/01/03 10:51:55;;;;;;;4.93;1.03;;;11.20;99.90;;;;;;4933784;29;20933;-58
2024/01/03 10:54:22;;;;;;;4.07;1.53;;;11.30;99.90;;;;;;4933302;29;20174;-62
2024/01/03 10:56:51;;;;;;;3.80;1.83;;;11.30;99.90;;;;;;4932119;29;20933;-60
2024/01/03 10:59:21;;;;;;;6.63;2.37;;;11.30;99.90;;;;;;4920386;29;20484;-60
2024/01/03 11:01:58;;;;;;;3.57;1.90;;;11.20;99.90;;;;;;4911473;29;20447;-61
2024/01/03 11:04:56;;;;;;;5.00;2.27;;;11.20;99.90;;;;;;4916368;29;20412;-61
2024/01/03 11:07:28;;;;;;;12.70;4.70;;;11.30;99.90;;;;;;4907691;29;20528;-60
2024/01/03 11:09:54;;;;;;;16.30;4.80;;;11.20;99.90;;;;;;4910127;29;20418;-65
2024/01/03 11:12:28;;;;;;;6.20;3.20;;;11.30;99.90;;;;;;4901546;29;20919;-65
2024/01/03 11:14:54;;;;;;;7.80;3.87;;;11.30;99.90;;;;;;4920272;29;20174;-61
2024/01/03 11:17:34;;;;;;;4.30;2.23;;;11.30;99.90;;;;;;4910218;29;20440;-61
2024/01/03 11:20:09;;;;;;;2.07;1.07;;;11.40;99.90;;;;;;4920864;29;20179;-60
2024/01/03 11:23:58;;;;;;;5.07;1.10;;;11.40;99.90;;;;;;5068561;28;21067;-60
2024/01/03 11:26:54;;;;;;;1.00;0.80;;;11.40;99.90;;;;;;5054982;28;20417;-60
2024/01/03 11:29:35;;;;;;;1.10;1.00;;;11.40;99.90;;;;;;5040748;28;20425;-59
2024/01/03 11:32:20;;;;;;;2.00;1.20;;;11.40;99.90;;;;;;5034053;28;20806;-62
2024/01/03 11:34:49;;;;;;;3.50;1.80;;;11.40;99.90;;;;;;5045168;28;20438;-62
2024/01/03 11:37:20;;;;;;;4.10;2.10;;;11.30;99.90;;;;;;5035139;28;20457;-62
2024/01/03 11:39:49;;;;;;;5.13;3.00;;;11.40;99.90;;;;;;5041229;28;20480;-61
2024/01/03 11:42:32;;;;;;;3.87;1.53;;;11.30;99.90;;;;;;5040350;28;20816;-62
2024/01/03 11:45:08;;;;;;;2.83;2.40;;;11.30;99.90;;;;;;5039491;28;20426;-62
2024/01/03 11:47:36;;;;;;;2.07;1.63;;;11.20;99.90;;;;;;5043138;28;20947;-61
2024/01/03 11:50:04;;;;;;;1.63;1.40;;;11.20;99.90;;;;;;5039200;28;20852;-62
2024/01/03 11:52:37;;;;;;;3.30;2.13;;;11.30;99.90;;;;;;5044616;28;20817;-62
2024/01/03 11:55:10;;;;;;;2.03;1.73;;;11.30;99.90;;;;;;5040148;28;20409;-60
2024/01/03 11:57:43;;;;;;;3.40;1.47;;;11.40;99.90;;;;;;5038393;28;20433;-60
2024/01/03 12:00:16;;;;;;;2.97;1.30;;;11.40;99.90;;;;;;5032110;28;21002;-60
2024/01/03 12:02:56;;;;;;;3.57;1.27;;;11.30;99.90;;;;;;5041503;28;20462;-61
2024/01/03 12:05:26;;;;;;;3.83;1.00;;;11.30;99.90;;;;;;5039266;28;20425;-59
2024/01/03 12:07:53;;;;;;;4.03;1.30;;;11.30;99.90;;;;;;5034722;28;20601;-58
2024/01/03 12:10:19;;;;;;;2.30;1.13;;;11.30;99.90;;;;;;5035507;28;20423;-58
2024/01/03 12:12:46;;;;;;;1.23;1.00;;;11.30;99.90;;;;;;5031645;28;20468;-59
2024/01/03 12:15:28;;;;;;;3.87;1.77;;;11.20;99.90;;;;;;5035979;28;20423;-62
2024/01/03 12:18:04;;;;;;;3.50;1.30;;;11.20;99.90;;;;;;5040982;28;20518;-62
2024/01/03 12:20:30;;;;;;;2.43;0.90;;;11.20;99.90;;;;;;5037037;28;20430;-62
2024/01/03 12:23:14;;;;;;;2.30;1.17;;;11.30;99.90;;;;;;5047142;28;20464;-59
2024/01/03 12:25:42;;;;;;;3.73;1.43;;;11.30;99.90;;;;;;5047514;28;20185;-62
2024/01/03 12:28:09;;;;;;;3.53;1.00;;;11.20;99.90;;;;;;5046793;28;20452;-58
2024/01/03 12:30:35;;;;;;;2.30;1.43;;;11.10;99.90;;;;;;5051975;28;20437;-64
2024/01/03 12:33:12;;;;;;;3.80;1.43;;;11.10;99.90;;;;;;5043544;28;20409;-61
2024/01/03 12:35:38;;;;;;;3.73;1.40;;;11.10;99.90;;;;;;5036326;28;20422;-59
2024/01/03 12:38:04;;;;;;;3.03;1.43;;;11.10;99.90;;;;;;5042456;28;20434;-62
2024/01/03 12:40:30;;;;;;;3.03;1.10;;;11.10;99.90;;;;;;5046744;28;20835;-60
2024/01/03 12:42:56;;;;;;;2.27;1.00;;;11.10;99.90;;;;;;5041631;28;20459;-59
2024/01/03 12:45:21;;;;;;;3.23;1.50;;;11.10;99.90;;;;;;5031264;28;20171;-61
2024/01/03 12:47:47;;;;;;;2.90;1.27;;;11.00;99.90;;;;;;5035743;28;20207;-62
2024/01/03 12:50:13;;;;;;;4.20;2.30;;;11.00;99.90;;;;;;5041928;28;20172;-60
2024/01/03 12:52:38;;;;;;;6.13;2.00;;;10.90;99.90;;;;;;5039105;28;20411;-62
2024/01/03 12:55:06;;;;;;;1.83;1.30;;;11.00;99.90;;;;;;5042184;28;20174;-60
2024/01/03 12:57:31;;;;;;;7.37;1.93;;;11.00;99.90;;;;;;5046398;28;20205;-61